• Join FlightAware (Why Join?)
  • Login
  • US Flag 
07:34AM EDT


 

Airport Tracker/Info


-or-


 

Live Flight TrackerFlight Track Log ✈ N48FH ✈ 01-Nov-2013 ✈ KBRO - KCRP

Flight Track Log - Related Links

Times and Time Zones

All times are in EDT time to prevent confusion due to time zone crossing. See the N48FH flight status page for this flight to view local times or setup timezone preferences in your user account.

Time Position Orientation Groundspeed Altitude Reporting Facility
EDT Latitude Longitude Course Direction KTS MPH feet Rate Location/Type
04:01PM 25.9097 -97.4142 North 105 121 900  Level Houston Center
04:02PM 25.9536 -97.4106 North 108 124 2,200 840 Climbing Houston Center
04:03PM 25.9608 -97.4111 356° North 110 127 2,300 660 Climbing Houston Center
04:03PM 25.9850 -97.4108 North 113 130 2,900 540 Climbing Houston Center
04:04PM 25.9933 -97.4092 10° North 115 132 2,900 480 Level Houston Center
04:04PM 26.0208 -97.4106 357° North 124 143 3,400 540 Climbing Houston Center
04:05PM 26.0314 -97.4097 North 125 144 3,500 600 Climbing Houston Center
04:05PM 26.0614 -97.4144 352° North 127 146 4,100 540 Climbing Houston Center
04:06PM 26.0658 -97.4139 North 125 144 4,100 480 Level Houston Center
04:06PM 26.0931 -97.4172 354° North 120 138 4,600 480 Climbing Houston Center
04:07PM 26.1019 -97.4161 North 122 140 4,600 480 Level Houston Center
04:07PM 26.1272 -97.4194 353° North 122 140 5,100 540 Climbing Houston Center
04:08PM 26.1367 -97.4175 10° North 124 143 5,200 540 Climbing Houston Center
04:09PM 26.1767 -97.4192 358° North 132 152 5,800 600 Climbing Houston Center
04:10PM 26.2053 -97.4228 354° North 129 148 6,400 540 Climbing Houston Center
04:10PM 26.2119 -97.4217 North 128 147 6,400 540 Level Houston Center
04:11PM 26.2392 -97.4231 357° North 126 145 6,900 480 Climbing Houston Center
04:11PM 26.2494 -97.4236 357° North 126 145 6,900 120 Level Houston Center
04:11PM 26.2667 -97.4261 353° North 128 147 7,000  Climbing Houston Center
04:12PM 26.2900 -97.4242 North 144 166 6,900  Descending Houston Center
04:13PM 26.3172 -97.4264 356° North 152 175 7,000  Climbing Houston Center
04:13PM 26.3358 -97.4264 360° North 152 175 6,900  Descending Houston Center
04:13PM 26.3578 -97.4303 351° North 154 177 7,000  Climbing Houston Center
04:14PM 26.3778 -97.4294 North 152 175 6,900  Descending Houston Center
04:15PM 26.4083 -97.4303 359° North 152 175 7,000  Climbing Houston Center
04:15PM 26.4236 -97.4317 355° North 152 175 6,900  Descending Houston Center
04:16PM 26.4486 -97.4342 355° North 152 175 7,000  Climbing Houston Center
04:16PM 26.4658 -97.4336 North 152 175 6,900  Descending Houston Center
04:17PM 26.4972 -97.4344 359° North 153 176 7,000  Climbing Houston Center
04:17PM 26.5114 -97.4358 355° North 152 175 6,900  Descending Houston Center
04:18PM 26.5375 -97.4383 355° North 152 175 7,000  Climbing Houston Center
04:18PM 26.5542 -97.4378 North 153 176 6,900  Descending Houston Center
04:19PM 26.5864 -97.4411 355° North 154 177 7,000  Climbing Houston Center
04:19PM 26.5975 -97.4397 North 156 180 6,900 -120 Descending Houston Center
04:20PM 26.6436 -97.4419 358° North 154 177 6,900  Level Houston Center
04:21PM 26.6861 -97.4444 357° North 153 176 6,900 60 Level Houston Center
04:22PM 26.7025 -97.4464 354° North 153 176 7,000  Climbing Houston Center
04:22PM 26.7322 -97.4467 360° North 153 176 6,900  Descending Houston Center
04:23PM 26.7533 -97.4489 355° North 153 176 7,000  Climbing Houston Center
04:23PM 26.7747 -97.4492 359° North 153 176 6,900 -120 Descending Houston Center
04:24PM 26.7981 -97.4522 353° North 156 180 6,900  Level Houston Center
04:24PM 26.8203 -97.4528 359° North 153 176 6,900  Level Houston Center
04:25PM 26.8339 -97.4542 355° North 153 176 6,900  Level Houston Center
04:25PM 26.8633 -97.4558 357° North 155 178 6,900  Level Houston Center
04:26PM 26.8850 -97.4592 352° North 155 178 6,900  Level Houston Center
04:26PM 26.9094 -97.4589 North 154 177 6,900  Level Houston Center
04:27PM 26.9294 -97.4600 357° North 154 177 6,900  Level Houston Center
04:27PM 26.9525 -97.4608 358° North 155 178 6,900  Level Houston Center
04:28PM 26.9719 -97.4636 353° North 155 178 6,900  Level Houston Center
04:28PM 26.9981 -97.4631 North 159 183 6,900  Level Houston Center
04:29PM 27.0161 -97.4647 355° North 154 177 6,900  Level Houston Center
04:29PM 27.0400 -97.4656 358° North 156 180 6,900  Level Houston Center
04:30PM 27.0608 -97.4681 354° North 155 178 6,900 -120 Level Houston Center
04:31PM 27.0844 -97.4661 North 155 178 6,800 -300 Descending Houston Center
04:31PM 27.1050 -97.4689 353° North 160 184 6,600 -540 Descending Houston Center
04:32PM 27.1347 -97.4719 355° North 161 185 6,300 -420 Descending Houston Center
04:32PM 27.1517 -97.4719 360° North 169 194 6,200 -300 Descending Houston Center
04:33PM 27.1717 -97.4725 359° North 158 182 6,000 -540 Descending Houston Center
04:33PM 27.1958 -97.4731 359° North 166 191 5,700 -600 Descending Houston Center
04:34PM 27.2250 -97.4756 356° North 158 182 5,400 -600 Descending Houston Center
04:34PM 27.2447 -97.4758 359° North 166 191 5,100 -600 Descending Houston Center
04:35PM 27.2719 -97.4767 358° North 161 185 4,800 -540 Descending Houston Center
04:35PM 27.2933 -97.4786 355° North 164 189 4,600 -540 Descending Houston Center
04:36PM 27.3169 -97.4797 358° North 162 186 4,300 -600 Descending Houston Center
04:36PM 27.3336 -97.4800 359° North 166 191 4,100 -420 Descending Houston Center
04:37PM 27.3639 -97.4811 358° North 165 190 3,900 -240 Descending Houston Center
04:37PM 27.3822 -97.4828 355° North 165 190 3,900  Level Houston Center
04:38PM 27.4225 -97.4844 358° North 152 175 3,900  Level Houston Center
04:39PM 27.4594 -97.4869 357° North 160 184 3,900  Level Houston Center
04:39PM 27.4692 -97.4875 357° North 153 176 3,900 -300 Level Houston Center
04:40PM 27.5022 -97.4892 357° North 156 180 3,600 -300 Descending Houston Center
04:40PM 27.5092 -97.4892 360° North 157 181 3,600 -420 Level Houston Center
04:41PM 27.5453 -97.4914 357° North 156 180 3,200 -540 Descending Houston Center
04:41PM 27.5603 -97.4939 352° North 160 184 3,000 -660 Descending Houston Center
04:42PM 27.6003 -97.4956 358° North 165 190 2,500 -600 Descending Houston Center
04:43PM 27.6467 -97.4961 359° North 169 194 2,000 -480 Descending Houston Center
04:44PM 27.6914 -97.4997 356° North 167 192 1,600 -480 Descending Houston Center
04:45PM 27.7381 -97.5028 357° North 163 188 1,100 -300 Descending Houston Center
04:46PM 27.7706 -97.5314 322° Northwest 108 124 1,000 -120 Descending Houston Center
04:48PM 27.7704 -97.5012 98° East  Level Estimated
04:55PM 27.7667 -97.5000 350° North  Level FlightAware Approximate